Time,TemperatureF,DewpointF,PressureIn,WindDirection,WindDirectionDegrees,WindSpeedMPH,WindSpeedGustMPH,Humidity,HourlyPrecipIn,Conditions,Clouds,dailyrainin,SoftwareType,DateUTC
2013-11-28 00:01:00,36.9,14.8,29.38,NW,324,2.7,3.6,40,0.00,,---,0.00,VWS V14.01,2013-11-28 05:01:00,
2013-11-28 00:02:00,36.9,14.8,29.38,WSW,257,3.6,3.6,40,0.00,,---,0.00,VWS V14.01,2013-11-28 05:02:00,
2013-11-28 00:07:00,36.7,13.5,29.38,NW,325,11.0,11.0,38,0.00,,---,0.00,VWS V14.01,2013-11-28 05:07:00,
2013-11-28 00:12:00,36.5,13.9,29.41,NW,310,8.3,11.0,39,0.00,,---,0.00,VWS V14.01,2013-11-28 05:12:00,
2013-11-28 00:17:00,36.3,11.9,29.41,NNW,332,9.6,12.3,36,0.00,,---,0.00,VWS V14.01,2013-11-28 05:17:00,
2013-11-28 00:22:00,36.3,12.6,29.41,NW,308,7.6,7.6,37,0.00,,---,0.00,VWS V14.01,2013-11-28 05:22:00,
2013-11-28 00:27:00,36.1,13.0,29.41,NNW,327,2.7,5.4,38,0.00,,---,0.00,VWS V14.01,2013-11-28 05:27:00,
2013-11-28 00:32:00,36.0,12.2,29.41,NW,319,6.3,10.5,37,0.00,,---,0.00,VWS V14.01,2013-11-28 05:32:00,
2013-11-28 00:37:00,35.8,11.4,29.41,NW,307,6.3,6.3,36,0.00,,---,0.00,VWS V14.01,2013-11-28 05:37:00,
2013-11-28 00:42:00,35.6,10.7,29.44,NW,321,6.3,8.3,35,0.00,,---,0.00,VWS V14.01,2013-11-28 05:42:00,
2013-11-28 00:47:00,35.6,10.0,29.44,NNW,345,8.1,9.6,34,0.00,,---,0.00,VWS V14.01,2013-11-28 05:47:00,
2013-11-28 00:52:00,35.4,10.5,29.44,NW,312,5.4,7.2,35,0.00,,---,0.00,VWS V14.01,2013-11-28 05:52:00,
2013-11-28 00:57:00,35.4,11.1,29.44,WNW,301,6.7,6.7,36,0.00,,---,0.00,VWS V14.01,2013-11-28 05:57:00,
2013-11-28 01:02:00,35.2,10.3,29.44,SSW,198,3.6,5.8,35,0.00,,---,0.00,VWS V14.01,2013-11-28 06:02:00,
2013-11-28 01:07:00,35.1,10.2,29.44,NNW,334,5.8,7.2,35,0.00,,---,0.00,VWS V14.01,2013-11-28 06:07:00,
2013-11-28 01:12:00,35.1,10.2,29.44,NW,316,3.1,10.5,35,0.00,,---,0.00,VWS V14.01,2013-11-28 06:12:00,
2013-11-28 01:17:00,35.1,10.2,29.44,West,273,2.7,5.8,35,0.00,,---,0.00,VWS V14.01,2013-11-28 06:17:00,
2013-11-28 01:22:00,34.9,9.4,29.44,WNW,288,5.4,10.1,34,0.00,,---,0.00,VWS V14.01,2013-11-28 06:22:00,
2013-11-28 01:27:00,34.9,9.4,29.47,NW,316,4.0,5.8,34,0.00,,---,0.00,VWS V14.01,2013-11-28 06:27:00,
2013-11-28 01:32:00,34.9,9.4,29.47,NW,308,4.0,6.3,34,0.00,,---,0.00,VWS V14.01,2013-11-28 06:32:00,
2013-11-28 01:37:00,34.7,8.6,29.47,NW,321,3.6,8.1,33,0.00,,---,0.00,VWS V14.01,2013-11-28 06:37:00,
2013-11-28 01:42:00,34.7,8.6,29.47,North,350,3.1,8.1,33,0.00,,---,0.00,VWS V14.01,2013-11-28 06:42:00,
2013-11-28 01:47:00,34.7,8.6,29.47,NW,324,5.4,7.6,33,0.00,,---,0.00,VWS V14.01,2013-11-28 06:47:00,
2013-11-28 01:52:00,34.5,8.4,29.47,WNW,282,2.7,5.4,33,0.00,,---,0.00,VWS V14.01,2013-11-28 06:52:00,
2013-11-28 01:57:00,34.5,8.4,29.50,WNW,301,2.7,7.6,33,0.00,,---,0.00,VWS V14.01,2013-11-28 06:57:00,
2013-11-28 02:02:00,34.3,8.2,29.50,NW,323,2.7,4.9,33,0.00,,---,0.00,VWS V14.01,2013-11-28 07:02:00,
2013-11-28 02:07:00,34.3,7.6,29.50,SE,134,6.3,8.3,32,0.00,,---,0.00,VWS V14.01,2013-11-28 07:07:00,
2013-11-28 02:12:00,34.3,7.6,29.50,NW,319,4.0,5.4,32,0.00,,---,0.00,VWS V14.01,2013-11-28 07:12:00,
2013-11-28 02:17:00,34.3,7.6,29.50,NW,324,11.0,11.0,32,0.00,,---,0.00,VWS V14.01,2013-11-28 07:17:00,
2013-11-28 02:22:00,34.3,7.6,29.50,SW,216,5.8,5.8,32,0.00,,---,0.00,VWS V14.01,2013-11-28 07:22:00,
2013-11-28 02:27:00,34.2,6.7,29.50,NNW,338,7.6,8.3,31,0.00,,---,0.00,VWS V14.01,2013-11-28 07:27:00,
2013-11-28 02:32:00,34.0,6.5,29.50,NNW,331,4.0,7.6,31,0.00,,---,0.00,VWS V14.01,2013-11-28 07:32:00,
2013-11-28 02:37:00,33.8,6.4,29.53,NW,310,7.6,8.1,31,0.00,,---,0.00,VWS V14.01,2013-11-28 07:37:00,
2013-11-28 02:42:00,33.8,6.4,29.53,NW,316,4.0,5.4,31,0.00,,---,0.00,VWS V14.01,2013-11-28 07:42:00,
2013-11-28 02:48:00,33.6,6.2,29.53,WNW,286,7.6,10.5,31,0.00,,---,0.00,VWS V14.01,2013-11-28 07:48:00,
2013-11-28 02:53:00,33.4,6.1,29.53,NW,316,5.8,10.5,31,0.00,,---,0.00,VWS V14.01,2013-11-28 07:53:00,
2013-11-28 02:58:00,33.3,5.9,29.53,NNW,331,8.3,8.3,31,0.00,,---,0.00,VWS V14.01,2013-11-28 07:58:00,
2013-11-28 03:03:00,33.1,5.8,29.53,NNW,328,6.3,9.6,31,0.00,,---,0.00,VWS V14.01,2013-11-28 08:03:00,
2013-11-28 03:08:00,32.9,5.6,29.56,NNW,334,4.0,10.5,31,0.00,,---,0.00,VWS V14.01,2013-11-28 08:08:00,
2013-11-28 03:13:00,32.7,5.4,29.56,East,86,7.2,11.0,31,0.00,,---,0.00,VWS V14.01,2013-11-28 08:13:00,
2013-11-28 03:18:00,32.7,5.4,29.56,NNW,344,5.8,8.7,31,0.00,,---,0.00,VWS V14.01,2013-11-28 08:18:00,
2013-11-28 03:23:00,32.7,5.4,29.56,SSE,147,2.7,6.3,31,0.00,,---,0.00,VWS V14.01,2013-11-28 08:23:00,
2013-11-28 03:28:00,32.7,5.4,29.56,NW,326,5.4,5.8,31,0.00,,---,0.00,VWS V14.01,2013-11-28 08:28:00,
2013-11-28 03:33:00,32.7,5.4,29.56,NW,318,4.9,5.4,31,0.00,,---,0.00,VWS V14.01,2013-11-28 08:33:00,
2013-11-28 03:38:00,32.7,5.4,29.59,WSW,250,7.6,10.5,31,0.00,,---,0.00,VWS V14.01,2013-11-28 08:38:00,
2013-11-28 03:43:00,32.7,5.4,29.59,NW,325,4.9,6.7,31,0.00,,---,0.00,VWS V14.01,2013-11-28 08:43:00,
2013-11-28 03:48:00,32.5,5.3,29.59,NNW,332,5.8,6.3,31,0.00,,---,0.00,VWS V14.01,2013-11-28 08:48:00,
2013-11-28 03:53:00,32.5,5.3,29.59,NW,318,2.7,6.3,31,0.00,,---,0.00,VWS V14.01,2013-11-28 08:53:00,
2013-11-28 03:58:00,32.4,5.1,29.59,NW,306,5.4,5.4,31,0.00,,---,0.00,VWS V14.01,2013-11-28 08:58:00,
2013-11-28 04:03:00,32.2,5.0,29.59,NNW,331,11.0,11.0,31,0.00,,---,0.00,VWS V14.01,2013-11-28 09:03:00,
2013-11-28 04:08:00,32.2,5.0,29.62,NW,307,5.8,6.3,31,0.00,,---,0.00,VWS V14.01,2013-11-28 09:08:00,
2013-11-28 04:13:00,31.8,3.9,29.62,NNW,327,3.6,10.5,30,0.00,,---,0.00,VWS V14.01,2013-11-28 09:13:00,
2013-11-28 04:18:00,31.6,3.8,29.62,North,6,6.3,12.3,30,0.00,,---,0.00,VWS V14.01,2013-11-28 09:18:00,
2013-11-28 04:23:00,31.5,3.6,29.65,NW,326,7.6,8.1,30,0.00,,---,0.00,VWS V14.01,2013-11-28 09:23:00,
2013-11-28 04:28:00,31.3,3.5,29.65,NW,318,4.0,8.1,30,0.00,,---,0.00,VWS V14.01,2013-11-28 09:28:00,
2013-11-28 04:33:00,31.1,3.3,29.65,NW,319,3.1,7.6,30,0.00,,---,0.00,VWS V14.01,2013-11-28 09:33:00,
2013-11-28 04:38:00,31.1,3.3,29.65,NW,305,4.0,8.1,30,0.00,,---,0.00,VWS V14.01,2013-11-28 09:38:00,
2013-11-28 04:43:00,31.1,3.3,29.65,NW,313,6.3,12.3,30,0.00,,---,0.00,VWS V14.01,2013-11-28 09:43:00,
2013-11-28 04:48:00,30.9,1.7,29.65,NW,324,4.9,5.8,28,0.00,,---,0.00,VWS V14.01,2013-11-28 09:48:00,
2013-11-28 04:53:00,30.7,3.0,29.68,NW,316,4.9,5.8,30,0.00,,---,0.00,VWS V14.01,2013-11-28 09:53:00,
2013-11-28 04:58:00,30.7,3.0,29.68,NW,310,2.7,2.7,30,0.00,,---,0.00,VWS V14.01,2013-11-28 09:58:00,
2013-11-28 05:03:00,30.6,2.8,29.68,NW,320,5.8,6.3,30,0.00,,---,0.00,VWS V14.01,2013-11-28 10:03:00,
2013-11-28 05:08:00,30.4,2.7,29.68,NW,325,7.6,7.6,30,0.00,,---,0.00,VWS V14.01,2013-11-28 10:08:00,
2013-11-28 05:13:00,30.2,2.5,29.68,SSE,157,5.8,7.6,30,0.00,,---,0.00,VWS V14.01,2013-11-28 10:13:00,
2013-11-28 05:18:00,30.0,2.3,29.68,WNW,286,3.6,3.6,30,0.00,,---,0.00,VWS V14.01,2013-11-28 10:18:00,
2013-11-28 05:23:00,29.8,0.7,29.71,NW,319,7.6,7.6,28,0.00,,---,0.00,VWS V14.01,2013-11-28 10:23:00,
2013-11-28 05:28:00,29.7,0.6,29.71,WNW,302,5.4,7.6,28,0.00,,---,0.00,VWS V14.01,2013-11-28 10:28:00,
2013-11-28 05:33:00,29.7,0.6,29.71,NW,324,4.9,6.3,28,0.00,,---,0.00,VWS V14.01,2013-11-28 10:33:00,
2013-11-28 05:38:00,29.5,0.4,29.71,West,278,8.7,10.1,28,0.00,,---,0.00,VWS V14.01,2013-11-28 10:38:00,
2013-11-28 05:43:00,29.3,0.2,29.71,NW,317,4.0,8.7,28,0.00,,---,0.00,VWS V14.01,2013-11-28 10:43:00,
2013-11-28 05:48:00,29.1,0.1,29.71,WSW,248,5.8,5.8,28,0.00,,---,0.00,VWS V14.01,2013-11-28 10:48:00,
2013-11-28 05:53:00,29.1,0.1,29.74,NNW,331,2.7,8.1,28,0.00,,---,0.00,VWS V14.01,2013-11-28 10:53:00,
2013-11-28 05:58:00,29.1,0.1,29.74,NW,320,8.1,8.3,28,0.00,,---,0.00,VWS V14.01,2013-11-28 10:58:00,
2013-11-28 06:03:00,29.1,0.1,29.74,NW,308,6.3,8.7,28,0.00,,---,0.00,VWS V14.01,2013-11-28 11:03:00,
2013-11-28 06:08:00,28.9,-0.1,29.74,West,260,5.4,9.6,28,0.00,,---,0.00,VWS V14.01,2013-11-28 11:08:00,
2013-11-28 06:13:00,28.9,-0.1,29.74,NW,324,6.3,10.1,28,0.00,,---,0.00,VWS V14.01,2013-11-28 11:13:00,
2013-11-28 06:18:00,28.8,-0.2,29.74,NW,305,8.7,8.7,28,0.00,,---,0.00,VWS V14.01,2013-11-28 11:18:00,
2013-11-28 06:23:00,28.6,-0.4,29.74,NNW,333,5.8,12.8,28,0.00,,---,0.00,VWS V14.01,2013-11-28 11:23:00,
2013-11-28 06:28:00,28.6,-0.4,29.74,SW,223,3.6,8.7,28,0.00,,---,0.00,VWS V14.01,2013-11-28 11:28:00,
2013-11-28 06:33:00,28.8,-2.6,29.74,NW,314,7.6,10.1,25,0.00,,---,0.00,VWS V14.01,2013-11-28 11:33:00,
2013-11-28 06:38:00,28.8,-2.6,29.77,NNW,327,12.3,12.3,25,0.00,,---,0.00,VWS V14.01,2013-11-28 11:38:00,
2013-11-28 06:43:00,28.8,-2.6,29.77,NNW,329,8.3,8.3,25,0.00,,---,0.00,VWS V14.01,2013-11-28 11:43:00,
2013-11-28 06:48:00,28.8,-2.6,29.77,NNW,335,10.5,10.5,25,0.00,,---,0.00,VWS V14.01,2013-11-28 11:48:00,
2013-11-28 06:53:00,28.8,-2.6,29.77,SW,231,3.1,8.7,25,0.00,,---,0.00,VWS V14.01,2013-11-28 11:53:00,
2013-11-28 06:58:00,28.6,-2.8,29.77,NNW,329,16.3,16.3,25,0.00,,---,0.00,VWS V14.01,2013-11-28 11:58:00,
2013-11-28 07:03:00,28.6,-2.8,29.77,NW,314,8.7,10.5,25,0.00,,---,0.00,VWS V14.01,2013-11-28 12:03:00,
2013-11-28 07:08:00,28.4,-2.1,29.80,NNW,329,11.0,11.0,26,0.00,,---,0.00,VWS V14.01,2013-11-28 12:08:00,
2013-11-28 07:13:00,28.2,-2.2,29.80,NW,319,4.5,8.1,26,0.00,,---,0.00,VWS V14.01,2013-11-28 12:13:00,
2013-11-28 07:18:00,28.2,-2.2,29.80,NW,311,4.0,4.9,26,0.00,,---,0.00,VWS V14.01,2013-11-28 12:18:00,
2013-11-28 07:23:00,28.2,-2.2,29.80,NW,313,3.6,8.7,26,0.00,,---,0.00,VWS V14.01,2013-11-28 12:23:00,
2013-11-28 07:28:00,28.0,-2.4,29.80,NW,315,7.6,7.6,26,0.00,,---,0.00,VWS V14.01,2013-11-28 12:28:00,
2013-11-28 07:33:00,28.0,-2.4,29.80,North,349,6.3,6.3,26,0.00,,---,0.00,VWS V14.01,2013-11-28 12:33:00,
2013-11-28 07:38:00,28.0,-2.4,29.83,NW,322,5.8,8.3,26,0.00,,---,0.00,VWS V14.01,2013-11-28 12:38:00,
2013-11-28 07:43:00,28.0,-2.4,29.83,NW,320,3.1,8.3,26,0.00,,---,0.00,VWS V14.01,2013-11-28 12:43:00,
2013-11-28 07:48:00,27.9,-5.1,29.83,NW,326,6.3,12.3,23,0.00,,---,0.00,VWS V14.01,2013-11-28 12:48:00,
2013-11-28 07:53:00,27.9,-5.1,29.85,NW,324,8.3,10.5,23,0.00,,---,0.00,VWS V14.01,2013-11-28 12:53:00,
2013-11-28 07:58:00,27.9,-5.1,29.85,NW,315,7.6,7.6,23,0.00,,---,0.00,VWS V14.01,2013-11-28 12:58:00,
2013-11-28 08:03:00,27.9,-5.1,29.85,NNW,327,12.3,12.3,23,0.00,,---,0.00,VWS V14.01,2013-11-28 13:03:00,
2013-11-28 08:08:00,27.9,-5.1,29.85,WNW,298,10.5,10.5,23,0.00,,---,0.00,VWS V14.01,2013-11-28 13:08:00,
2013-11-28 08:13:00,27.9,-5.1,29.85,NNW,335,6.3,12.8,23,0.00,,---,0.00,VWS V14.01,2013-11-28 13:13:00,
2013-11-28 08:18:00,27.9,-5.1,29.85,NNW,327,8.7,8.7,23,0.00,,---,0.00,VWS V14.01,2013-11-28 13:18:00,
2013-11-28 08:23:00,27.9,-5.1,29.88,NW,323,5.8,10.5,23,0.00,,---,0.00,VWS V14.01,2013-11-28 13:23:00,
2013-11-28 08:28:00,28.0,-5.0,29.88,NW,312,4.0,5.8,23,0.00,,---,0.00,VWS V14.01,2013-11-28 13:28:00,
2013-11-28 08:33:00,28.4,-4.7,29.88,NW,320,6.3,10.5,23,0.00,,---,0.00,VWS V14.01,2013-11-28 13:33:00,
2013-11-28 08:38:00,28.6,-4.5,29.91,NNW,334,8.7,12.8,23,0.00,,---,0.00,VWS V14.01,2013-11-28 13:38:00,
2013-11-28 08:43:00,28.8,-4.3,29.91,West,265,4.0,8.3,23,0.00,,---,0.00,VWS V14.01,2013-11-28 13:43:00,
2013-11-28 08:48:00,28.9,-4.2,29.91,NW,324,7.6,8.3,23,0.00,,---,0.00,VWS V14.01,2013-11-28 13:48:00,
2013-11-28 08:53:00,28.9,-4.2,29.91,WNW,288,8.1,8.7,23,0.00,,---,0.00,VWS V14.01,2013-11-28 13:53:00,
2013-11-28 08:58:00,29.1,-4.1,29.91,NW,308,0.0,3.6,23,0.00,,---,0.00,VWS V14.01,2013-11-28 13:58:00,
2013-11-28 09:03:00,29.5,-3.7,29.91,NW,321,5.8,8.3,23,0.00,,---,0.00,VWS V14.01,2013-11-28 14:03:00,
2013-11-28 09:08:00,29.5,-3.7,29.94,WNW,303,9.2,10.5,23,0.00,,---,0.00,VWS V14.01,2013-11-28 14:08:00,
2013-11-28 09:13:00,29.3,-3.9,29.94,NW,319,4.9,12.8,23,0.00,,---,0.00,VWS V14.01,2013-11-28 14:13:00,
2013-11-28 09:19:00,29.1,-4.1,29.94,NW,318,3.1,10.1,23,0.00,,---,0.00,VWS V14.01,2013-11-28 14:19:00,
2013-11-28 09:24:00,29.1,-4.1,29.94,NW,318,8.1,8.7,23,0.00,,---,0.00,VWS V14.01,2013-11-28 14:24:00,
2013-11-28 09:29:00,29.3,-3.9,29.94,NW,318,5.4,8.3,23,0.00,,---,0.00,VWS V14.01,2013-11-28 14:29:00,
2013-11-28 09:34:00,29.5,-3.7,29.94,NW,326,5.4,8.7,23,0.00,,---,0.00,VWS V14.01,2013-11-28 14:34:00,
2013-11-28 09:39:00,29.7,-3.6,29.94,NW,324,7.6,7.6,23,0.00,,---,0.00,VWS V14.01,2013-11-28 14:39:00,
2013-11-28 09:44:00,29.5,-3.7,29.94,NW,320,8.1,8.7,23,0.00,,---,0.00,VWS V14.01,2013-11-28 14:44:00,
2013-11-28 09:49:00,29.7,-3.6,29.94,NW,326,5.8,11.0,23,0.00,,---,0.00,VWS V14.01,2013-11-28 14:49:00,
2013-11-28 09:54:00,29.7,-3.6,29.97,NNW,336,4.0,10.1,23,0.00,,---,0.00,VWS V14.01,2013-11-28 14:54:00,
2013-11-28 09:59:00,30.0,-3.3,29.97,NNW,328,8.1,8.3,23,0.00,,---,0.00,VWS V14.01,2013-11-28 14:59:00,
2013-11-28 10:04:00,30.0,-3.3,29.97,NW,310,3.6,10.1,23,0.00,,---,0.00,VWS V14.01,2013-11-28 15:04:00,
2013-11-28 10:09:00,30.2,-3.1,29.97,NW,311,3.6,11.0,23,0.00,,---,0.00,VWS V14.01,2013-11-28 15:09:00,
2013-11-28 10:14:00,30.4,-3.0,29.97,WNW,302,5.4,8.1,23,0.00,,---,0.00,VWS V14.01,2013-11-28 15:14:00,
2013-11-28 10:19:00,30.7,-2.7,29.97,NW,326,5.8,7.6,23,0.00,,---,0.00,VWS V14.01,2013-11-28 15:19:00,
2013-11-28 10:24:00,31.1,-2.4,29.97,NW,305,6.3,10.5,23,0.00,,---,0.00,VWS V14.01,2013-11-28 15:24:00,
2013-11-28 10:29:00,30.9,-2.5,29.97,NNW,332,10.1,10.1,23,0.00,,---,0.00,VWS V14.01,2013-11-28 15:29:00,
2013-11-28 10:34:00,31.1,-2.4,29.97,NW,314,7.6,8.1,23,0.00,,---,0.00,VWS V14.01,2013-11-28 15:34:00,
2013-11-28 10:39:00,31.5,-2.0,29.97,West,280,10.1,11.9,23,0.00,,---,0.00,VWS V14.01,2013-11-28 15:39:00,
2013-11-28 10:44:00,31.5,-2.0,29.97,NW,319,3.6,10.5,23,0.00,,---,0.00,VWS V14.01,2013-11-28 15:44:00,
2013-11-28 10:49:00,31.5,-5.0,29.97,NW,326,5.8,12.3,20,0.00,,---,0.00,VWS V14.01,2013-11-28 15:49:00,
2013-11-28 10:54:00,31.6,-4.8,29.97,NW,323,5.8,10.5,20,0.00,,---,0.00,VWS V14.01,2013-11-28 15:54:00,
2013-11-28 10:59:00,31.8,-4.7,29.97,NNW,340,7.6,12.8,20,0.00,,---,0.00,VWS V14.01,2013-11-28 15:59:00,
2013-11-28 11:00:00,31.8,-4.7,29.97,NW,325,7.6,8.1,20,0.00,,---,0.00,VWS V14.01,2013-11-28 16:00:00,
2013-11-28 11:04:00,31.8,-4.7,29.97,NW,325,7.6,8.1,20,0.00,,---,0.00,VWS V14.01,2013-11-28 16:04:00,
2013-11-28 11:09:00,31.8,-4.7,29.97,NW,325,7.6,8.1,20,0.00,,---,0.00,VWS V14.01,2013-11-28 16:09:00,
2013-11-28 11:14:00,32.7,-3.9,29.97,NW,310,3.6,6.3,20,0.00,,---,0.00,VWS V14.01,2013-11-28 16:14:00,
2013-11-28 11:19:00,32.7,-3.9,29.97,NW,321,8.7,10.1,20,0.00,,---,0.00,VWS V14.01,2013-11-28 16:19:00,
2013-11-28 11:24:00,32.7,-3.9,30.00,NW,320,5.8,7.6,20,0.00,,---,0.00,VWS V14.01,2013-11-28 16:24:00,
2013-11-28 11:29:00,32.7,-3.9,30.00,NNW,333,5.4,9.6,20,0.00,,---,0.00,VWS V14.01,2013-11-28 16:29:00,
2013-11-28 11:34:00,32.7,-3.9,30.00,NW,324,10.1,10.1,20,0.00,,---,0.00,VWS V14.01,2013-11-28 16:34:00,
2013-11-28 11:39:00,32.5,-4.1,30.00,NW,308,5.8,10.5,20,0.00,,---,0.00,VWS V14.01,2013-11-28 16:39:00,
2013-11-28 11:44:00,32.5,-4.1,30.00,NW,310,8.1,8.1,20,0.00,,---,0.00,VWS V14.01,2013-11-28 16:44:00,
2013-11-28 11:49:00,32.7,-3.9,30.00,NW,308,8.3,10.1,20,0.00,,---,0.00,VWS V14.01,2013-11-28 16:49:00,
2013-11-28 11:54:00,32.5,-4.1,30.00,NW,325,7.6,8.7,20,0.00,,---,0.00,VWS V14.01,2013-11-28 16:54:00,
2013-11-28 11:59:00,32.9,-3.8,30.00,NW,312,5.8,7.6,20,0.00,,---,0.00,VWS V14.01,2013-11-28 16:59:00,
2013-11-28 12:04:00,33.1,-3.6,30.00,NW,320,2.2,2.2,20,0.00,,---,0.00,VWS V14.01,2013-11-28 17:04:00,
2013-11-28 12:09:00,33.4,-3.3,30.00,West,271,3.6,9.6,20,0.00,,---,0.00,VWS V14.01,2013-11-28 17:09:00,
2013-11-28 12:14:00,33.4,-3.3,30.00,NW,318,6.3,8.7,20,0.00,,---,0.00,VWS V14.01,2013-11-28 17:14:00,
2013-11-28 12:19:00,33.3,-3.5,30.00,NW,326,3.1,6.3,20,0.00,,---,0.00,VWS V14.01,2013-11-28 17:19:00,
2013-11-28 12:24:00,33.6,-3.2,30.00,NW,319,5.4,8.3,20,0.00,,---,0.00,VWS V14.01,2013-11-28 17:24:00,
2013-11-28 12:29:00,33.8,-3.0,30.00,WNW,293,7.2,11.4,20,0.00,,---,0.00,VWS V14.01,2013-11-28 17:29:00,
2013-11-28 12:34:00,34.2,-2.7,30.00,NW,305,8.7,8.7,20,0.00,,---,0.00,VWS V14.01,2013-11-28 17:34:00,
2013-11-28 12:39:00,34.0,-2.9,30.00,WNW,285,7.6,10.5,20,0.00,,---,0.00,VWS V14.01,2013-11-28 17:39:00,
2013-11-28 12:44:00,33.6,-3.2,30.00,NNW,342,2.7,8.7,20,0.00,,---,0.00,VWS V14.01,2013-11-28 17:44:00,
2013-11-28 12:49:00,33.8,-3.0,30.00,NW,314,3.6,6.3,20,0.00,,---,0.00,VWS V14.01,2013-11-28 17:49:00,
2013-11-28 12:54:00,34.0,-2.9,30.00,NNW,328,4.0,8.1,20,0.00,,---,0.00,VWS V14.01,2013-11-28 17:54:00,
2013-11-28 12:59:00,34.3,-2.6,30.00,NW,321,5.4,5.8,20,0.00,,---,0.00,VWS V14.01,2013-11-28 17:59:00,
2013-11-28 13:04:00,34.3,-2.6,30.00,NW,326,5.4,5.4,20,0.00,,---,0.00,VWS V14.01,2013-11-28 18:04:00,
2013-11-28 13:09:00,34.5,-2.4,30.00,NNW,332,6.3,8.1,20,0.00,,---,0.00,VWS V14.01,2013-11-28 18:09:00,
2013-11-28 13:14:00,34.5,-2.4,30.00,NW,320,2.7,3.6,20,0.00,,---,0.00,VWS V14.01,2013-11-28 18:14:00,
2013-11-28 13:19:00,34.5,-2.4,30.00,WNW,301,4.9,6.3,20,0.00,,---,0.00,VWS V14.01,2013-11-28 18:19:00,
2013-11-28 13:24:00,34.3,-2.6,30.00,NW,317,4.0,8.1,20,0.00,,---,0.00,VWS V14.01,2013-11-28 18:24:00,
2013-11-28 13:29:00,33.3,-3.5,30.00,NW,321,6.3,7.6,20,0.00,,---,0.00,VWS V14.01,2013-11-28 18:29:00,
2013-11-28 13:34:00,32.5,-4.1,30.00,NNW,331,7.6,10.1,20,0.00,,---,0.00,VWS V14.01,2013-11-28 18:34:00,
2013-11-28 13:39:00,31.8,-4.7,30.03,WNW,295,8.1,8.1,20,0.00,,---,0.00,VWS V14.01,2013-11-28 18:39:00,
2013-11-28 13:44:00,31.5,-5.0,30.03,NNW,329,10.1,10.1,20,0.00,,---,0.00,VWS V14.01,2013-11-28 18:44:00,
2013-11-28 13:49:00,31.1,-5.3,30.03,NW,320,5.4,10.5,20,0.00,,---,0.00,VWS V14.01,2013-11-28 18:49:00,
2013-11-28 13:54:00,30.9,-5.4,30.03,South,188,2.7,11.0,20,0.00,,---,0.00,VWS V14.01,2013-11-28 18:54:00,
2013-11-28 13:59:00,31.1,-5.3,30.03,WNW,291,5.8,11.0,20,0.00,,---,0.00,VWS V14.01,2013-11-28 18:59:00,
2013-11-28 14:04:00,30.7,-5.6,30.03,NW,305,8.7,8.7,20,0.00,,---,0.00,VWS V14.01,2013-11-28 19:04:00,
2013-11-28 14:10:00,30.6,-5.7,30.03,NW,312,5.8,8.7,20,0.00,,---,0.00,VWS V14.01,2013-11-28 19:10:00,
2013-11-28 14:15:00,30.4,-5.9,30.03,NW,313,5.8,9.6,20,0.00,,---,0.00,VWS V14.01,2013-11-28 19:15:00,
2013-11-28 14:20:00,30.4,-5.9,30.03,NNW,331,6.3,9.2,20,0.00,,---,0.00,VWS V14.01,2013-11-28 19:20:00,
2013-11-28 14:25:00,30.4,-5.9,30.03,NW,323,5.4,8.7,20,0.00,,---,0.00,VWS V14.01,2013-11-28 19:25:00,
2013-11-28 14:30:00,30.4,-5.9,30.03,NNW,335,8.1,10.1,20,0.00,,---,0.00,VWS V14.01,2013-11-28 19:30:00,
2013-11-28 14:35:00,31.1,-5.3,30.03,WNW,298,11.0,11.0,20,0.00,,---,0.00,VWS V14.01,2013-11-28 19:35:00,
2013-11-28 14:40:00,31.8,-4.7,30.03,North,349,3.6,8.7,20,0.00,,---,0.00,VWS V14.01,2013-11-28 19:40:00,
2013-11-28 14:44:00,32.4,-4.2,30.03,NNW,327,6.3,8.3,20,0.00,,---,0.00,VWS V14.01,2013-11-28 19:44:00,
2013-11-28 14:49:00,32.5,-4.1,30.03,NW,322,5.8,8.1,20,0.00,,---,0.00,VWS V14.01,2013-11-28 19:49:00,
2013-11-28 14:54:00,32.5,-4.1,30.06,NW,318,9.6,10.1,20,0.00,,---,0.00,VWS V14.01,2013-11-28 19:54:00,
2013-11-28 14:59:00,32.2,-4.4,30.06,NW,318,3.6,11.0,20,0.00,,---,0.00,VWS V14.01,2013-11-28 19:59:00,
2013-11-28 15:04:00,31.6,-4.8,30.06,NW,324,6.7,8.1,20,0.00,,---,0.00,VWS V14.01,2013-11-28 20:04:00,
2013-11-28 15:09:00,31.1,-5.3,30.06,NW,324,4.9,11.9,20,0.00,,---,0.00,VWS V14.01,2013-11-28 20:09:00,
2013-11-28 15:14:00,31.1,-5.3,30.06,NW,324,6.3,6.3,20,0.00,,---,0.00,VWS V14.01,2013-11-28 20:14:00,
2013-11-28 15:19:00,31.1,-5.3,30.06,NW,304,6.3,7.6,20,0.00,,---,0.00,VWS V14.01,2013-11-28 20:19:00,
2013-11-28 15:24:00,31.1,-5.3,30.06,North,353,5.8,5.8,20,0.00,,---,0.00,VWS V14.01,2013-11-28 20:24:00,
2013-11-28 15:29:00,31.1,-5.3,30.06,NW,315,2.7,10.5,20,0.00,,---,0.00,VWS V14.01,2013-11-28 20:29:00,
2013-11-28 15:34:00,30.7,-5.6,30.06,NW,318,5.4,5.4,20,0.00,,---,0.00,VWS V14.01,2013-11-28 20:34:00,
2013-11-28 15:39:00,30.2,-6.0,30.09,NW,319,3.1,10.1,20,0.00,,---,0.00,VWS V14.01,2013-11-28 20:39:00,
2013-11-28 15:44:00,29.5,-6.6,30.09,NW,310,8.7,8.7,20,0.00,,---,0.00,VWS V14.01,2013-11-28 20:44:00,
2013-11-28 15:49:00,29.1,-6.9,30.09,NW,311,8.1,8.7,20,0.00,,---,0.00,VWS V14.01,2013-11-28 20:49:00,
2013-11-28 15:54:00,28.9,-7.1,30.09,NNW,330,4.0,8.3,20,0.00,,---,0.00,VWS V14.01,2013-11-28 20:54:00,
2013-11-28 15:59:00,28.6,-7.4,30.09,NW,313,2.7,5.4,20,0.00,,---,0.00,VWS V14.01,2013-11-28 20:59:00,
2013-11-28 16:05:00,28.4,-6.5,30.09,NW,313,3.6,4.0,21,0.00,,---,0.00,VWS V14.01,2013-11-28 21:05:00,
2013-11-28 16:10:00,28.2,-6.7,30.09,NNW,332,6.7,6.7,21,0.00,,---,0.00,VWS V14.01,2013-11-28 21:10:00,
2013-11-28 16:15:00,28.0,-6.8,30.09,NW,322,3.6,4.9,21,0.00,,---,0.00,VWS V14.01,2013-11-28 21:15:00,
2013-11-28 16:19:00,27.9,-7.0,30.09,WNW,298,4.9,4.9,21,0.00,,---,0.00,VWS V14.01,2013-11-28 21:19:00,
2013-11-28 16:24:00,27.7,-7.2,30.12,NNW,327,6.3,6.3,21,0.00,,---,0.00,VWS V14.01,2013-11-28 21:24:00,
2013-11-28 16:29:00,27.7,-7.2,30.12,NW,311,3.1,3.6,21,0.00,,---,0.00,VWS V14.01,2013-11-28 21:29:00,
2013-11-28 16:34:00,27.7,-7.2,30.12,NNW,337,5.8,6.7,21,0.00,,---,0.00,VWS V14.01,2013-11-28 21:34:00,
2013-11-28 16:39:00,27.5,-7.3,30.12,NW,307,5.4,7.6,21,0.00,,---,0.00,VWS V14.01,2013-11-28 21:39:00,
2013-11-28 16:45:00,27.7,-7.2,30.12,NW,308,6.3,7.6,21,0.00,,---,0.00,VWS V14.01,2013-11-28 21:45:00,
2013-11-28 16:49:00,27.5,-7.3,30.12,NW,313,4.0,5.4,21,0.00,,---,0.00,VWS V14.01,2013-11-28 21:49:00,
2013-11-28 16:54:00,27.5,-7.3,30.15,NW,319,4.0,4.0,21,0.00,,---,0.00,VWS V14.01,2013-11-28 21:54:00,
2013-11-28 16:59:00,27.3,-7.4,30.15,NW,318,2.7,4.9,21,0.00,,---,0.00,VWS V14.01,2013-11-28 21:59:00,
2013-11-28 17:04:00,27.1,-7.6,30.15,NW,312,2.7,5.8,21,0.00,,---,0.00,VWS V14.01,2013-11-28 22:04:00,
2013-11-28 17:09:00,27.1,-7.6,30.15,WNW,302,4.9,4.9,21,0.00,,---,0.00,VWS V14.01,2013-11-28 22:09:00,
2013-11-28 17:14:00,27.0,-7.8,30.15,NNW,328,3.6,7.6,21,0.00,,---,0.00,VWS V14.01,2013-11-28 22:14:00,
2013-11-28 17:19:00,27.0,-7.8,30.15,NW,307,2.7,6.7,21,0.00,,---,0.00,VWS V14.01,2013-11-28 22:19:00,
2013-11-28 17:24:00,27.0,-7.8,30.15,NNW,329,3.1,4.0,21,0.00,,---,0.00,VWS V14.01,2013-11-28 22:24:00,
2013-11-28 17:29:00,27.0,-7.8,30.15,NNW,341,3.1,5.8,21,0.00,,---,0.00,VWS V14.01,2013-11-28 22:29:00,
2013-11-28 17:34:00,26.8,-7.9,30.15,NW,316,2.7,4.0,21,0.00,,---,0.00,VWS V14.01,2013-11-28 22:34:00,
2013-11-28 17:39:00,26.6,-8.1,30.18,NW,311,2.7,5.4,21,0.00,,---,0.00,VWS V14.01,2013-11-28 22:39:00,
2013-11-28 17:45:00,26.2,-8.4,30.18,NW,314,2.7,3.1,21,0.00,,---,0.00,VWS V14.01,2013-11-28 22:45:00,
2013-11-28 17:50:00,26.1,-8.5,30.18,NW,314,0.0,2.7,21,0.00,,---,0.00,VWS V14.01,2013-11-28 22:50:00,
2013-11-28 17:55:00,25.7,-8.8,30.18,NW,314,0.0,0.0,21,0.00,,---,0.00,VWS V14.01,2013-11-28 22:55:00,
2013-11-28 18:00:00,25.3,-9.1,30.18,NW,314,0.0,0.0,21,0.00,,---,0.00,VWS V14.01,2013-11-28 23:00:00,
2013-11-28 18:05:00,25.0,-9.4,30.18,NW,314,0.0,0.0,21,0.00,,---,0.00,VWS V14.01,2013-11-28 23:05:00,
2013-11-28 18:10:00,24.4,-8.9,30.18,NW,314,2.7,2.7,22,0.00,,---,0.00,VWS V14.01,2013-11-28 23:10:00,
2013-11-28 18:14:00,23.9,-9.4,30.18,NW,314,0.0,0.0,22,0.00,,---,0.00,VWS V14.01,2013-11-28 23:14:00,
2013-11-28 18:19:00,23.5,-9.7,30.18,NW,314,0.0,0.0,22,0.00,,---,0.00,VWS V14.01,2013-11-28 23:19:00,
2013-11-28 18:24:00,23.2,-10.0,30.18,NW,314,0.0,0.0,22,0.00,,---,0.00,VWS V14.01,2013-11-28 23:24:00,
2013-11-28 18:29:00,22.8,-10.3,30.18,NW,314,0.0,0.0,22,0.00,,---,0.00,VWS V14.01,2013-11-28 23:29:00,
2013-11-28 18:34:00,22.5,-10.6,30.18,NW,314,0.0,0.0,22,0.00,,---,0.00,VWS V14.01,2013-11-28 23:34:00,
2013-11-28 18:39:00,22.3,-10.8,30.18,NW,314,0.0,2.2,22,0.00,,---,0.00,VWS V14.01,2013-11-28 23:39:00,
2013-11-28 18:44:00,22.6,-10.5,30.18,WSW,246,2.7,2.7,22,0.00,,---,0.00,VWS V14.01,2013-11-28 23:44:00,
2013-11-28 18:49:00,23.2,-10.0,30.18,SSW,213,0.0,2.2,22,0.00,,---,0.00,VWS V14.01,2013-11-28 23:49:00,
2013-11-28 18:54:00,23.5,-9.7,30.21,NW,309,3.1,3.1,22,0.00,,---,0.00,VWS V14.01,2013-11-28 23:54:00,
2013-11-28 18:59:00,23.9,-9.4,30.21,South,186,2.2,3.6,22,0.00,,---,0.00,VWS V14.01,2013-11-28 23:59:00,
2013-11-28 19:04:00,24.4,-8.9,30.21,NW,314,2.7,3.1,22,0.00,,---,0.00,VWS V14.01,2013-11-29 00:04:00,
2013-11-28 19:09:00,24.6,-8.8,30.21,NW,325,3.6,4.0,22,0.00,,---,0.00,VWS V14.01,2013-11-29 00:09:00,
2013-11-28 19:14:00,24.6,-8.8,30.21,NW,323,2.7,2.7,22,0.00,,---,0.00,VWS V14.01,2013-11-29 00:14:00,
2013-11-28 19:19:00,24.6,-8.8,30.21,WNW,299,2.7,2.7,22,0.00,,---,0.00,VWS V14.01,2013-11-29 00:19:00,
2013-11-28 19:24:00,24.4,-8.9,30.21,SW,235,2.2,2.7,22,0.00,,---,0.00,VWS V14.01,2013-11-29 00:24:00,
2013-11-28 19:29:00,24.4,-8.9,30.21,NW,316,0.0,2.2,22,0.00,,---,0.00,VWS V14.01,2013-11-29 00:29:00,
2013-11-28 19:34:00,24.4,-8.9,30.21,NW,323,2.2,4.0,22,0.00,,---,0.00,VWS V14.01,2013-11-29 00:34:00,
2013-11-28 19:39:00,24.4,-8.9,30.21,NW,308,2.7,2.7,22,0.00,,---,0.00,VWS V14.01,2013-11-29 00:39:00,
2013-11-28 19:44:00,24.4,-8.9,30.21,WNW,299,2.2,2.7,22,0.00,,---,0.00,VWS V14.01,2013-11-29 00:44:00,
2013-11-28 19:49:00,24.3,-9.1,30.21,WNW,299,3.1,3.6,22,0.00,,---,0.00,VWS V14.01,2013-11-29 00:49:00,
2013-11-28 19:54:00,24.3,-9.1,30.21,NW,319,2.2,3.1,22,0.00,,---,0.00,VWS V14.01,2013-11-29 00:54:00,
2013-11-28 19:59:00,24.3,-9.1,30.21,NW,308,0.0,3.1,22,0.00,,---,0.00,VWS V14.01,2013-11-29 00:59:00,
2013-11-28 20:04:00,24.3,-9.1,30.21,SW,230,2.2,2.2,22,0.00,,---,0.00,VWS V14.01,2013-11-29 01:04:00,
2013-11-28 20:09:00,23.9,-9.4,30.24,WSW,241,0.0,0.0,22,0.00,,---,0.00,VWS V14.01,2013-11-29 01:09:00,
2013-11-28 20:14:00,23.5,-9.7,30.24,WSW,241,0.0,0.0,22,0.00,,---,0.00,VWS V14.01,2013-11-29 01:14:00,
2013-11-28 20:19:00,23.4,-9.9,30.24,NW,306,0.0,2.7,22,0.00,,---,0.00,VWS V14.01,2013-11-29 01:19:00,
2013-11-28 20:24:00,23.2,-10.0,30.24,South,183,0.0,2.2,22,0.00,,---,0.00,VWS V14.01,2013-11-29 01:24:00,
2013-11-28 20:29:00,23.0,-10.2,30.24,WSW,257,0.0,2.7,22,0.00,,---,0.00,VWS V14.01,2013-11-29 01:29:00,
2013-11-28 20:34:00,22.8,-10.3,30.24,SW,225,0.0,0.0,22,0.00,,---,0.00,VWS V14.01,2013-11-29 01:34:00,
2013-11-28 20:39:00,22.6,-10.5,30.24,SW,225,0.0,0.0,22,0.00,,---,0.00,VWS V14.01,2013-11-29 01:39:00,
2013-11-28 20:44:00,22.6,-10.5,30.24,SW,225,0.0,0.0,22,0.00,,---,0.00,VWS V14.01,2013-11-29 01:44:00,
2013-11-28 20:49:00,22.6,-10.5,30.24,SW,225,0.0,0.0,22,0.00,,---,0.00,VWS V14.01,2013-11-29 01:49:00,
2013-11-28 20:54:00,22.3,-10.8,30.24,SW,225,0.0,0.0,22,0.00,,---,0.00,VWS V14.01,2013-11-29 01:54:00,
2013-11-28 20:59:00,21.9,-11.1,30.24,SW,225,0.0,0.0,22,0.00,,---,0.00,VWS V14.01,2013-11-29 01:59:00,
2013-11-28 21:04:00,21.6,-11.4,30.24,SW,225,0.0,0.0,22,0.00,,---,0.00,VWS V14.01,2013-11-29 02:04:00,
2013-11-28 21:09:00,21.4,-11.5,30.24,SW,225,0.0,0.0,22,0.00,,---,0.00,VWS V14.01,2013-11-29 02:09:00,
2013-11-28 21:14:00,21.2,-11.7,30.24,SW,225,0.0,0.0,22,0.00,,---,0.00,VWS V14.01,2013-11-29 02:14:00,
2013-11-28 21:19:00,21.2,-11.7,30.24,SW,225,0.0,0.0,22,0.00,,---,0.00,VWS V14.01,2013-11-29 02:19:00,
2013-11-28 21:24:00,21.2,-11.7,30.24,SW,225,0.0,0.0,22,0.00,,---,0.00,VWS V14.01,2013-11-29 02:24:00,
2013-11-28 21:29:00,21.0,-11.9,30.24,SW,225,0.0,0.0,22,0.00,,---,0.00,VWS V14.01,2013-11-29 02:29:00,
2013-11-28 21:34:00,21.2,-11.7,30.24,SW,225,0.0,0.0,22,0.00,,---,0.00,VWS V14.01,2013-11-29 02:34:00,
2013-11-28 21:39:00,21.4,-11.5,30.24,SW,225,0.0,0.0,22,0.00,,---,0.00,VWS V14.01,2013-11-29 02:39:00,
2013-11-28 21:44:00,21.6,-11.4,30.24,SW,225,0.0,0.0,22,0.00,,---,0.00,VWS V14.01,2013-11-29 02:44:00,
2013-11-28 21:49:00,21.9,-11.1,30.24,SW,225,0.0,0.0,22,0.00,,---,0.00,VWS V14.01,2013-11-29 02:49:00,
2013-11-28 21:54:00,22.3,-8.2,30.24,SW,225,2.2,2.2,25,0.00,,---,0.00,VWS V14.01,2013-11-29 02:54:00,
2013-11-28 21:59:00,22.5,-8.0,30.24,SW,225,0.0,0.0,25,0.00,,---,0.00,VWS V14.01,2013-11-29 02:59:00,
2013-11-28 22:04:00,22.3,-8.2,30.24,SW,225,0.0,0.0,25,0.00,,---,0.00,VWS V14.01,2013-11-29 03:04:00,
2013-11-28 22:09:00,22.3,-8.2,30.24,SW,225,2.2,2.2,25,0.00,,---,0.00,VWS V14.01,2013-11-29 03:09:00,
2013-11-28 22:14:00,22.5,-8.0,30.24,SW,225,0.0,0.0,25,0.00,,---,0.00,VWS V14.01,2013-11-29 03:14:00,
2013-11-28 22:19:00,22.6,-7.9,30.24,SW,225,0.0,0.0,25,0.00,,---,0.00,VWS V14.01,2013-11-29 03:19:00,
2013-11-28 22:24:00,22.6,-7.9,30.24,SW,225,0.0,0.0,25,0.00,,---,0.00,VWS V14.01,2013-11-29 03:24:00,
2013-11-28 22:29:00,22.5,-8.0,30.24,SW,225,0.0,0.0,25,0.00,,---,0.00,VWS V14.01,2013-11-29 03:29:00,
2013-11-28 22:34:00,22.6,-7.9,30.24,SW,225,0.0,0.0,25,0.00,,---,0.00,VWS V14.01,2013-11-29 03:34:00,
2013-11-28 22:39:00,22.6,-7.9,30.27,SW,225,0.0,0.0,25,0.00,,---,0.00,VWS V14.01,2013-11-29 03:39:00,
2013-11-28 22:44:00,22.8,-7.7,30.27,SW,225,0.0,0.0,25,0.00,,---,0.00,VWS V14.01,2013-11-29 03:44:00,
2013-11-28 22:49:00,22.8,-7.7,30.27,SW,225,0.0,0.0,25,0.00,,---,0.00,VWS V14.01,2013-11-29 03:49:00,
2013-11-28 22:54:00,22.8,-7.7,30.27,SW,225,0.0,0.0,25,0.00,,---,0.00,VWS V14.01,2013-11-29 03:54:00,
2013-11-28 22:59:00,22.6,-7.9,30.27,SW,225,0.0,0.0,25,0.00,,---,0.00,VWS V14.01,2013-11-29 03:59:00,
2013-11-28 23:04:00,22.5,-8.0,30.27,SW,225,0.0,0.0,25,0.00,,---,0.00,VWS V14.01,2013-11-29 04:04:00,
2013-11-28 23:09:00,22.3,-8.2,30.27,SW,225,0.0,0.0,25,0.00,,---,0.00,VWS V14.01,2013-11-29 04:09:00,
2013-11-28 23:14:00,22.5,-8.0,30.27,SW,225,0.0,0.0,25,0.00,,---,0.00,VWS V14.01,2013-11-29 04:14:00,
2013-11-28 23:19:00,22.6,-7.9,30.27,SW,225,0.0,0.0,25,0.00,,---,0.00,VWS V14.01,2013-11-29 04:19:00,
2013-11-28 23:24:00,22.8,-7.7,30.27,SW,225,0.0,0.0,25,0.00,,---,0.00,VWS V14.01,2013-11-29 04:24:00,
2013-11-28 23:29:00,23.2,-5.8,30.27,SW,225,2.2,2.2,27,0.00,,---,0.00,VWS V14.01,2013-11-29 04:29:00,
2013-11-28 23:34:00,23.4,-5.7,30.27,SW,225,0.0,0.0,27,0.00,,---,0.00,VWS V14.01,2013-11-29 04:34:00,
2013-11-28 23:39:00,23.5,-5.5,30.27,SW,225,0.0,0.0,27,0.00,,---,0.00,VWS V14.01,2013-11-29 04:39:00,
2013-11-28 23:44:00,23.7,-5.4,30.27,SW,225,0.0,0.0,27,0.00,,---,0.00,VWS V14.01,2013-11-29 04:44:00,
2013-11-28 23:49:00,23.9,-5.2,30.27,SW,225,0.0,0.0,27,0.00,,---,0.00,VWS V14.01,2013-11-29 04:49:00,
2013-11-28 23:54:00,24.1,-5.1,30.27,SW,225,0.0,0.0,27,0.00,,---,0.00,VWS V14.01,2013-11-29 04:54:00,
2013-11-28 23:59:00,24.1,-5.1,30.27,SW,225,0.0,2.7,27,0.00,,---,0.00,VWS V14.01,2013-11-29 04:59:00,